Historique des stations

Station météo de Varennes-sur-Fouzon

Altitude de la station : 118 m







Données météorologiques pour le 18/05/2022
Date
Heure
Températures Humidité Point de rosée Vitesse
du vent
Direction Rafales Windchill Pression Pluviométrie
Cumul
Date
Heure
Températures Humidité Point de rosée Vitesse
du vent
Direction Rafales Windchill Pression Pluviométrie
Cumul
18/05/2022 15:3029.1 °C48 %16.9 °C7 km/hE16 km/h29.11019 hPa0.0 mm
18/05/2022 15:1028.9 °C50 %17.4 °C8 km/hE23 km/h28.91019 hPa0.0 mm
18/05/2022 15:0028.4 °C50 %17.0 °C9 km/hE19 km/h28.41019 hPa0.0 mm
18/05/2022 14:4028.4 °C53 %17.9 °C9 km/hE15 km/h28.41019 hPa0.0 mm
18/05/2022 14:3028.3 °C49 %16.6 °C8 km/hE19 km/h28.31019 hPa0.0 mm
18/05/2022 14:1028.4 °C50 %16.9 °C8 km/hENE24 km/h28.41020 hPa0.0 mm
18/05/2022 14:0027.9 °C53 %17.4 °C6 km/hE15 km/h27.91020 hPa0.0 mm
18/05/2022 13:4027.6 °C53 %17.1 °C5 km/hE15 km/h27.61020 hPa0.0 mm
18/05/2022 13:3027.2 °C53 %16.7 °C5 km/hENE19 km/h27.21020 hPa0.0 mm
18/05/2022 13:1026.7 °C57 %17.5 °C4 km/hENE13 km/h26.71021 hPa0.0 mm
18/05/2022 13:0026.8 °C57 %17.5 °C3 km/hE8 km/h26.81021 hPa0.0 mm
18/05/2022 12:4026.0 °C60 %17.6 °C3 km/hE11 km/h26.01021 hPa0.0 mm
18/05/2022 12:3025.8 °C58 %16.9 °C3 km/hE15 km/h25.81021 hPa0.0 mm
18/05/2022 12:1025.7 °C63 %18.1 °C3 km/hSE8 km/h25.71021 hPa0.0 mm
18/05/2022 12:0025.1 °C63 %17.5 °C3 km/hE11 km/h25.11021 hPa0.0 mm
18/05/2022 11:4024.8 °C65 %17.8 °C3 km/hE8 km/h24.81021 hPa0.0 mm
18/05/2022 11:3024.5 °C65 %17.5 °C3 km/hNE8 km/h24.51021 hPa0.0 mm
18/05/2022 11:1023.8 °C67 %17.3 °C4 km/hE10 km/h23.81021 hPa0.0 mm
18/05/2022 11:00---4 km/h---0 hPa0.0 mm
18/05/2022 10:1022.1 °C72 %16.8 °C3 km/hE6 km/h22.11022 hPa0.0 mm
18/05/2022 10:0021.3 °C74 %16.5 °C4 km/hE10 km/h21.31022 hPa0.0 mm
18/05/2022 09:4020.9 °C77 %16.7 °C4 km/hENE10 km/h20.91022 hPa0.0 mm
18/05/2022 09:3020.7 °C76 %16.3 °C3 km/hNE8 km/h20.71022 hPa0.0 mm
18/05/2022 09:1020.1 °C75 %15.5 °C3 km/hNE10 km/h20.11022 hPa0.0 mm
18/05/2022 09:0019.7 °C75 %15.1 °C2 km/hNNO6 km/h19.71022 hPa0.0 mm
18/05/2022 08:4019.2 °C76 %14.8 °C1 km/hNO5 km/h19.21022 hPa0.0 mm
18/05/2022 08:3018.9 °C77 %14.8 °C-O3 km/h18.91022 hPa0.0 mm
18/05/2022 08:1018.8 °C77 %14.7 °C-OSO2 km/h18.81022 hPa0.0 mm
18/05/2022 08:0017.3 °C82 %14.2 °C-OSO2 km/h17.31022 hPa0.0 mm
18/05/2022 07:4017.0 °C80 %13.5 °C-OSO2 km/h17.01022 hPa0.0 mm
18/05/2022 07:3016.8 °C81 %13.6 °C-OSO2 km/h16.81022 hPa0.0 mm
18/05/2022 07:1015.7 °C85 %13.2 °C---15.71022 hPa0.0 mm
18/05/2022 07:0014.7 °C90 %13.0 °C---14.71022 hPa0.0 mm
18/05/2022 06:4013.8 °C90 %12.2 °C-SO3 km/h13.81022 hPa0.0 mm
18/05/2022 06:3014.0 °C89 %12.2 °C-SO2 km/h14.01022 hPa0.0 mm
18/05/2022 06:1014.4 °C88 %12.4 °C-OSO2 km/h14.41022 hPa0.0 mm
18/05/2022 06:0014.7 °C87 %12.5 °C-OSO2 km/h14.71021 hPa0.0 mm
18/05/2022 05:4015.1 °C87 %13.0 °C-SO3 km/h15.11021 hPa0.0 mm
18/05/2022 05:3015.2 °C87 %13.0 °C-OSO2 km/h15.21021 hPa0.0 mm
18/05/2022 05:1015.3 °C85 %12.8 °C1 km/h--15.31021 hPa0.0 mm
18/05/2022 05:0016.2 °C83 %13.3 °C1 km/hOSO3 km/h16.21021 hPa0.0 mm
18/05/2022 04:4016.5 °C82 %13.4 °C1 km/hOSO3 km/h16.51021 hPa0.0 mm
18/05/2022 04:3016.9 °C81 %13.6 °C1 km/hSO5 km/h16.91021 hPa0.0 mm
18/05/2022 04:1016.9 °C81 %13.7 °C1 km/hOSO5 km/h16.91021 hPa0.0 mm
18/05/2022 04:0017.1 °C80 %13.6 °C1 km/hOSO3 km/h17.11021 hPa0.0 mm
18/05/2022 03:4017.5 °C78 %13.6 °C1 km/hOSO3 km/h17.51021 hPa0.0 mm
18/05/2022 03:3017.8 °C78 %13.9 °C1 km/hOSO3 km/h17.81021 hPa0.0 mm
18/05/2022 03:1017.8 °C78 %13.9 °C-OSO3 km/h17.81021 hPa0.0 mm
18/05/2022 03:0017.8 °C78 %13.9 °C-OSO2 km/h17.81021 hPa0.0 mm
18/05/2022 02:4017.5 °C79 %13.8 °C1 km/hOSO2 km/h17.51021 hPa0.0 mm
18/05/2022 02:3018.4 °C76 %14.1 °C2 km/hOSO3 km/h18.41021 hPa0.0 mm
18/05/2022 01:4019.6 °C73 %14.6 °C4 km/hOSO6 km/h19.61021 hPa0.0 mm
18/05/2022 01:3020.1 °C72 %14.8 °C4 km/hOSO13 km/h20.11021 hPa0.0 mm
18/05/2022 01:1020.3 °C73 %15.3 °C4 km/hOSO11 km/h20.31020 hPa0.0 mm
18/05/2022 01:0020.3 °C76 %15.9 °C4 km/h11 km/h20.31020 hPa0.0 mm
18/05/2022 00:4020.2 °C77 %16.1 °C4 km/hOSO5 km/h20.21020 hPa0.0 mm
18/05/2022 00:3020.8 °C75 %16.2 °C4 km/hOSO5 km/h20.81020 hPa0.0 mm
18/05/2022 00:1021.5 °C72 %16.2 °C4 km/hOSO15 km/h21.51020 hPa0.0 mm
18/05/2022 00:0021.6 °C72 %16.3 °C4 km/hOSO11 km/h21.61020 hPa0.0 mm


Minima :

Température : 13.8 °C
Humidité : 48 %
Point de rosée : 12.2 °C
Vent moyen : 1 km/h
Windchill : 13.8
Pression atm. : 0 hPa
Maxima :

Température : 29.1 °C
Humidité : 90 %
Point de rosée : 18.1 °C
Vent moyen : 9 km/h
Windchill : 29.1
Pression atm. : 1022 hPa
Rafales max : 24 km/h
Cumul de pluie sur 24H : 0 mm

Varennes sur fouzon est une commune du département Indre (36).
La station météorologique du réseau de l'association la plus proche de Varennes-sur-Fouzon est celle de Vicq-sur-Nahon



Icône Facebook Association Météo Centre Icône Twitter Association Météo Centre Icône Chaîne Youtube Association Météo Centre Icône contact Association Météo Centre Icône Insta Association Météo Centre